Time;durP1;ratioP1;P1;durP2;ratioP2;P2;SDS_P1;SDS_P2;PMS_P1;PMS_P2;Temp;Humidity;BMP_temperature;BMP_pressure;BME280_temperature;BME280_humidity;BME280_pressure;Samples;Min_cycle;Max_cycle;Signal;HPM_P1;HPM_P2
2024/04/10 00:00:32;;;;;;;;;;;;;;;;;;5303753;26;19930;-58
2024/04/10 00:02:58;;;;;;;;;;;;;;;;;;5277912;26;19931;-59
2024/04/10 00:05:24;;;;;;;;;;;;;;;;;;5307035;26;19946;-58
2024/04/10 00:07:50;;;;;;;;;;;;;;;;;;5307643;26;19931;-60
2024/04/10 00:10:16;;;;;;;;;;;;;;;;;;5308509;26;19931;-60
2024/04/10 00:12:41;;;;;;;;;;;;;;;;;;5307089;26;19930;-60
2024/04/10 00:15:07;;;;;;;;;;;;;;;;;;5308025;26;20377;-60
2024/04/10 00:17:33;;;;;;;;;;;;;;;;;;5308559;26;19930;-59
2024/04/10 00:19:59;;;;;;;;;;;;;;;;;;5307321;26;19931;-57
2024/04/10 00:22:25;;;;;;;;;;;;;;;;;;5309595;26;19931;-58
2024/04/10 00:24:51;;;;;;;;;;;;;;;;;;5305759;26;19979;-59
2024/04/10 00:27:17;;;;;;;;;;;;;;;;;;5307920;26;19942;-60
2024/04/10 00:29:42;;;;;;;;;;;;;;;;;;5307813;26;19930;-55
2024/04/10 00:32:09;;;;;;;;;;;;;;;;;;5301353;26;19942;-58
2024/04/10 00:34:35;;;;;;;;;;;;;;;;;;5306140;26;19994;-59
2024/04/10 00:37:01;;;;;;;;;;;;;;;;;;5307816;26;19931;-57
2024/04/10 00:39:27;;;;;;;;;;;;;;;;;;5308398;26;19977;-60
2024/04/10 00:41:53;;;;;;;;;;;;;;;;;;5308532;26;19957;-59
2024/04/10 00:44:19;;;;;;;;;;;;;;;;;;5307172;26;19931;-57
2024/04/10 00:46:46;;;;;;;;;;;;;;;;;;5304578;26;20365;-57
2024/04/10 00:49:12;;;;;;;;;;;;;;;;;;5305073;26;19930;-59
2024/04/10 00:51:38;;;;;;;;;;;;;;;;;;5308404;26;20285;-59
2024/04/10 00:54:04;;;;;;;;;;;;;;;;;;5277433;26;19938;-59
2024/04/10 00:56:30;;;;;;;;;;;;;;;;;;5307030;26;19959;-59
2024/04/10 00:58:55;;;;;;;;;;;;;;;;;;5306790;26;20356;-57
2024/04/10 01:01:21;;;;;;;;;;;;;;;;;;5307392;26;19941;-59
2024/04/10 01:03:47;;;;;;;;;;;;;;;;;;5305908;26;19939;-58
2024/04/10 01:06:13;;;;;;;;;;;;;;;;;;5305764;26;19930;-60
2024/04/10 01:08:39;;;;;;;;;;;;;;;;;;5302798;26;20399;-56
2024/04/10 01:11:05;;;;;;;;;;;;;;;;;;5306932;26;19931;-59
2024/04/10 01:13:30;;;;;;;;;;;;;;;;;;5305820;26;19931;-57
2024/04/10 01:15:56;;;;;;;;;;;;;;;;;;5303796;26;19931;-56
2024/04/10 01:18:22;;;;;;;;;;;;;;;;;;5269128;26;19934;-57
2024/04/10 01:20:51;;;;;;;;;;;;;;;;;;5302768;26;20372;-59
2024/04/10 01:23:17;;;;;;;;;;;;;;;;;;5308181;26;19937;-59
2024/04/10 01:25:43;;;;;;;;;;;;;;;;;;5307445;26;19931;-59
2024/04/10 01:28:08;;;;;;;;;;;;;;;;;;5306174;26;19942;-59
2024/04/10 01:30:34;;;;;;;;;;;;;;;;;;5307022;26;20636;-59
2024/04/10 01:33:00;;;;;;;;;;;;;;;;;;5306967;26;20008;-59
2024/04/10 01:35:26;;;;;;;;;;;;;;;;;;5303347;26;19938;-59
2024/04/10 01:37:52;;;;;;;;;;;;;;;;;;5306019;26;19931;-59
2024/04/10 01:40:18;;;;;;;;;;;;;;;;;;5306237;26;19942;-59
2024/04/10 01:42:44;;;;;;;;;;;;;;;;;;5305191;26;19930;-59
2024/04/10 01:45:09;;;;;;;;;;;;;;;;;;5304878;26;19930;-59
2024/04/10 01:47:35;;;;;;;;;;;;;;;;;;5307071;26;19931;-59
2024/04/10 01:50:01;;;;;;;;;;;;;;;;;;5304146;26;19931;-57
2024/04/10 01:52:27;;;;;;;;;;;;;;;;;;5308322;26;19937;-58
2024/04/10 01:54:53;;;;;;;;;;;;;;;;;;5303818;26;19982;-59
2024/04/10 01:57:19;;;;;;;;;;;;;;;;;;5306991;26;19930;-59
2024/04/10 01:59:45;;;;;;;;;;;;;;;;;;5308637;26;19938;-57
2024/04/10 02:02:11;;;;;;;;;;;;;;;;;;5307180;26;19930;-58
2024/04/10 02:04:36;;;;;;;;;;;;;;;;;;5302349;26;19939;-59
2024/04/10 02:07:03;;;;;;;;;;;;;;;;;;5303034;26;20256;-59
2024/04/10 02:09:29;;;;;;;;;;;;;;;;;;5306883;26;20622;-59
2024/04/10 02:11:56;;;;;;;;;;;;;;;;;;5307277;26;19968;-59
2024/04/10 02:14:22;;;;;;;;;;;;;;;;;;5304650;26;20401;-59
2024/04/10 02:16:47;;;;;;;;;;;;;;;;;;5305604;26;19930;-58
2024/04/10 02:19:13;;;;;;;;;;;;;;;;;;5306440;26;20381;-59
2024/04/10 02:21:39;;;;;;;;;;;;;;;;;;5305350;26;19930;-58
2024/04/10 02:24:06;;;;;;;;;;;;;;;;;;5299903;26;20001;-59
2024/04/10 02:26:32;;;;;;;;;;;;;;;;;;5307412;26;19938;-59
2024/04/10 02:28:58;;;;;;;;;;;;;;;;;;5304686;26;19930;-59
2024/04/10 02:31:24;;;;;;;;;;;;;;;;;;5305092;26;20457;-59
2024/04/10 02:33:50;;;;;;;;;;;;;;;;;;5305546;26;19983;-59
2024/04/10 02:36:16;;;;;;;;;;;;;;;;;;5305067;26;19942;-59
2024/04/10 02:38:42;;;;;;;;;;;;;;;;;;5305592;26;19938;-58
2024/04/10 02:41:08;;;;;;;;;;;;;;;;;;5305644;26;19937;-57
2024/04/10 02:43:33;;;;;;;;;;;;;;;;;;5313402;26;19931;-58
2024/04/10 02:45:59;;;;;;;;;;;;;;;;;;5307288;26;19931;-57
2024/04/10 02:48:25;;;;;;;;;;;;;;;;;;5309127;26;20724;-59
2024/04/10 02:50:51;;;;;;;;;;;;;;;;;;5309612;26;19937;-58
2024/04/10 02:53:18;;;;;;;;;;;;;;;;;;5315212;26;20380;-59
2024/04/10 02:55:44;;;;;;;;;;;;;;;;;;5310885;26;19930;-59
2024/04/10 02:58:10;;;;;;;;;;;;;;;;;;5308488;26;19938;-58
2024/04/10 03:00:36;;;;;;;;;;;;;;;;;;5309118;26;20364;-58
2024/04/10 03:03:02;;;;;;;;;;;;;;;;;;5308536;26;19931;-59
2024/04/10 03:05:28;;;;;;;;;;;;;;;;;;5310212;26;19982;-55
2024/04/10 03:07:53;;;;;;;;;;;;;;;;;;5307301;26;19931;-59
2024/04/10 03:10:19;;;;;;;;;;;;;;;;;;5315694;26;19930;-58
2024/04/10 03:12:45;;;;;;;;;;;;;;;;;;5308804;26;19930;-58
2024/04/10 03:15:11;;;;;;;;;;;;;;;;;;5282351;26;19931;-58
2024/04/10 03:17:37;;;;;;;;;;;;;;;;;;5304966;26;19942;-58
2024/04/10 03:20:03;;;;;;;;;;;;;;;;;;5308643;26;20288;-56
2024/04/10 03:22:29;;;;;;;;;;;;;;;;;;5310902;26;19942;-59
2024/04/10 03:24:55;;;;;;;;;;;;;;;;;;5308083;26;19938;-58
2024/04/10 03:27:21;;;;;;;;;;;;;;;;;;5276677;26;19958;-57
2024/04/10 03:29:47;;;;;;;;;;;;;;;;;;5312812;26;19997;-59
2024/04/10 03:32:12;;;;;;;;;;;;;;;;;;5297604;26;20272;-56
2024/04/10 03:34:38;;;;;;;;;;;;;;;;;;5309512;26;19938;-59
2024/04/10 03:37:04;;;;;;;;;;;;;;;;;;5305269;26;19938;-58
2024/04/10 03:39:31;;;;;;;;;;;;;;;;;;5309579;26;19938;-58
2024/04/10 03:41:57;;;;;;;;;;;;;;;;;;5308678;26;20379;-58
2024/04/10 03:44:23;;;;;;;;;;;;;;;;;;5310161;26;19937;-59
2024/04/10 03:46:49;;;;;;;;;;;;;;;;;;5302399;26;20323;-58
2024/04/10 03:49:15;;;;;;;;;;;;;;;;;;5306323;26;19943;-59
2024/04/10 03:51:40;;;;;;;;;;;;;;;;;;5309335;26;20025;-59
2024/04/10 03:54:06;;;;;;;;;;;;;;;;;;5307890;26;19937;-57
2024/04/10 03:56:32;;;;;;;;;;;;;;;;;;5307684;26;20384;-59
2024/04/10 03:58:58;;;;;;;;;;;;;;;;;;5308316;26;19943;-59
2024/04/10 04:01:24;;;;;;;;;;;;;;;;;;5306718;26;19930;-59
2024/04/10 04:03:50;;;;;;;;;;;;;;;;;;5310188;26;19931;-58
2024/04/10 04:06:16;;;;;;;;;;;;;;;;;;5307638;26;20011;-59
2024/04/10 04:08:41;;;;;;;;;;;;;;;;;;5309031;26;20017;-60
2024/04/10 04:11:07;;;;;;;;;;;;;;;;;;5302227;26;19938;-59
2024/04/10 04:13:33;;;;;;;;;;;;;;;;;;5310408;26;20001;-58
2024/04/10 04:15:59;;;;;;;;;;;;;;;;;;5308898;26;20388;-59
2024/04/10 04:18:25;;;;;;;;;;;;;;;;;;5303372;26;19939;-56
2024/04/10 04:20:51;;;;;;;;;;;;;;;;;;5310089;26;20373;-57
2024/04/10 04:23:16;;;;;;;;;;;;;;;;;;5311448;26;19938;-55
2024/04/10 04:25:42;;;;;;;;;;;;;;;;;;5310301;26;19930;-57
2024/04/10 04:28:08;;;;;;;;;;;;;;;;;;5298945;26;19943;-58
2024/04/10 04:30:34;;;;;;;;;;;;;;;;;;5304896;26;20505;-57
2024/04/10 04:33:00;;;;;;;;;;;;;;;;;;5300273;26;19962;-58
2024/04/10 04:35:26;;;;;;;;;;;;;;;;;;5308350;26;20369;-56
2024/04/10 04:37:52;;;;;;;;;;;;;;;;;;5309766;26;19937;-55
2024/04/10 04:40:17;;;;;;;;;;;;;;;;;;5306191;26;19946;-56
2024/04/10 04:42:43;;;;;;;;;;;;;;;;;;5307460;26;19930;-58
2024/04/10 04:45:09;;;;;;;;;;;;;;;;;;5308443;26;20265;-57
2024/04/10 04:47:35;;;;;;;;;;;;;;;;;;5278282;27;19946;-55
2024/04/10 04:50:01;;;;;;;;;;;;;;;;;;5299955;26;19939;-58
2024/04/10 04:52:27;;;;;;;;;;;;;;;;;;5306182;26;19931;-57
2024/04/10 04:54:53;;;;;;;;;;;;;;;;;;5306991;26;20264;-58
2024/04/10 04:57:19;;;;;;;;;;;;;;;;;;5306045;26;19938;-57
2024/04/10 04:59:45;;;;;;;;;;;;;;;;;;5307055;26;19966;-57
2024/04/10 05:02:11;;;;;;;;;;;;;;;;;;5302673;26;20387;-58
2024/04/10 05:04:57;;;;;;;;;;;;;;;;;;5308495;26;20001;-57
2024/04/10 05:07:23;;;;;;;;;;;;;;;;;;5274980;26;19939;-59
2024/04/10 05:09:49;;;;;;;;;;;;;;;;;;5307901;26;20058;-58
2024/04/10 05:12:15;;;;;;;;;;;;;;;;;;5301698;26;19930;-59
2024/04/10 05:14:41;;;;;;;;;;;;;;;;;;5305771;26;19931;-58
2024/04/10 05:17:07;;;;;;;;;;;;;;;;;;5303991;26;19934;-58
2024/04/10 05:19:33;;;;;;;;;;;;;;;;;;5306438;26;20413;-59
2024/04/10 05:21:59;;;;;;;;;;;;;;;;;;5306810;26;20020;-59
2024/04/10 05:24:25;;;;;;;;;;;;;;;;;;5311191;26;19937;-59
2024/04/10 05:26:50;;;;;;;;;;;;;;;;;;5306229;26;19937;-59
2024/04/10 05:29:17;;;;;;;;;;;;;;;;;;5277478;26;19937;-59
2024/04/10 05:31:43;;;;;;;;;;;;;;;;;;5305518;26;20010;-58
2024/04/10 05:34:08;;;;;;;;;;;;;;;;;;5302343;26;19947;-59
2024/04/10 05:36:34;;;;;;;;;;;;;;;;;;5308911;26;19930;-59
2024/04/10 05:39:00;;;;;;;;;;;;;;;;;;5307894;26;19930;-59
2024/04/10 05:41:26;;;;;;;;;;;;;;;;;;5306546;26;19949;-59
2024/04/10 05:43:52;;;;;;;;;;;;;;;;;;5306840;26;19939;-59
2024/04/10 05:46:18;;;;;;;;;;;;;;;;;;5306129;26;19931;-58
2024/04/10 05:48:44;;;;;;;;;;;;;;;;;;5295890;26;19942;-56
2024/04/10 05:51:10;;;;;;;;;;;;;;;;;;5299558;26;19930;-58
2024/04/10 05:53:35;;;;;;;;;;;;;;;;;;5308322;26;19938;-56
2024/04/10 05:56:01;;;;;;;;;;;;;;;;;;5307452;26;19930;-56
2024/04/10 05:58:28;;;;;;;;;;;;;;;;;;5303077;26;19931;-58
2024/04/10 06:00:53;;;;;;;;;;;;;;;;;;5305302;26;19930;-58
2024/04/10 06:03:19;;;;;;;;;;;;;;;;;;5304697;26;19945;-57
2024/04/10 06:05:45;;;;;;;;;;;;;;;;;;5304629;26;20054;-57
2024/04/10 06:08:11;;;;;;;;;;;;;;;;;;5306438;26;19930;-58
2024/04/10 06:10:37;;;;;;;;;;;;;;;;;;5307010;26;19937;-55
2024/04/10 06:13:03;;;;;;;;;;;;;;;;;;5301797;26;19938;-55
2024/04/10 06:15:29;;;;;;;;;;;;;;;;;;5299335;26;20134;-56
2024/04/10 06:17:55;;;;;;;;;;;;;;;;;;5306022;26;19937;-57
2024/04/10 06:20:21;;;;;;;;;;;;;;;;;;5306270;26;19945;-57
2024/04/10 06:22:47;;;;;;;;;;;;;;;;;;5300938;26;20004;-58
2024/04/10 06:25:13;;;;;;;;;;;;;;;;;;5300652;26;21207;-57
2024/04/10 06:27:38;;;;;;;;;;;;;;;;;;5305547;26;20304;-58
2024/04/10 06:30:05;;;;;;;;;;;;;;;;;;5302136;26;19937;-56
2024/04/10 06:32:31;;;;;;;;;;;;;;;;;;5297632;26;19931;-58
2024/04/10 06:34:57;;;;;;;;;;;;;;;;;;5303901;26;19931;-58
2024/04/10 06:37:23;;;;;;;;;;;;;;;;;;5304884;26;20673;-59
2024/04/10 06:39:49;;;;;;;;;;;;;;;;;;5300176;26;20009;-58
2024/04/10 06:42:15;;;;;;;;;;;;;;;;;;5309291;26;19971;-57
2024/04/10 06:44:41;;;;;;;;;;;;;;;;;;5306502;26;19930;-58
2024/04/10 06:47:07;;;;;;;;;;;;;;;;;;5304966;26;19930;-59
2024/04/10 06:49:33;;;;;;;;;;;;;;;;;;5305843;26;19942;-59
2024/04/10 06:51:59;;;;;;;;;;;;;;;;;;5310317;26;20353;-58
2024/04/10 06:54:24;;;;;;;;;;;;;;;;;;5304275;26;19946;-58
2024/04/10 06:56:50;;;;;;;;;;;;;;;;;;5306272;26;19931;-58
2024/04/10 06:59:16;;;;;;;;;;;;;;;;;;5308360;26;19949;-59
2024/04/10 07:01:42;;;;;;;;;;;;;;;;;;5302078;26;20001;-55
2024/04/10 07:04:08;;;;;;;;;;;;;;;;;;5307896;26;19942;-59
2024/04/10 07:06:34;;;;;;;;;;;;;;;;;;5303709;26;20859;-57
2024/04/10 07:09:00;;;;;;;;;;;;;;;;;;5308467;26;19941;-59
2024/04/10 07:11:26;;;;;;;;;;;;;;;;;;5300279;26;20018;-59
2024/04/10 07:13:52;;;;;;;;;;;;;;;;;;5307894;26;20391;-59
2024/04/10 07:16:17;;;;;;;;;;;;;;;;;;5308884;26;19931;-57
2024/04/10 07:18:43;;;;;;;;;;;;;;;;;;5305909;26;19935;-59
2024/04/10 07:21:09;;;;;;;;;;;;;;;;;;5292128;26;19982;-59
2024/04/10 07:23:37;;;;;;;;;;;;;;;;;;5302846;26;20487;-59
2024/04/10 07:26:03;;;;;;;;;;;;;;;;;;5296338;26;19930;-59
2024/04/10 07:28:29;;;;;;;;;;;;;;;;;;5308006;26;19938;-58
2024/04/10 07:30:55;;;;;;;;;;;;;;;;;;5309398;26;19938;-57
2024/04/10 07:33:20;;;;;;;;;;;;;;;;;;5309979;26;19931;-59
2024/04/10 07:35:46;;;;;;;;;;;;;;;;;;5295601;26;19947;-58
2024/04/10 07:38:12;;;;;;;;;;;;;;;;;;5308651;26;19930;-59
2024/04/10 07:40:38;;;;;;;;;;;;;;;;;;5300660;26;19978;-58
2024/04/10 07:43:04;;;;;;;;;;;;;;;;;;5304235;26;19938;-56
2024/04/10 07:45:30;;;;;;;;;;;;;;;;;;5307441;26;19962;-56
2024/04/10 07:47:56;;;;;;;;;;;;;;;;;;5300023;26;19937;-57
2024/04/10 07:50:22;;;;;;;;;;;;;;;;;;5294623;26;19938;-59
2024/04/10 07:52:48;;;;;;;;;;;;;;;;;;5301270;26;20656;-58
2024/04/10 07:55:14;;;;;;;;;;;;;;;;;;5306254;26;19931;-59
2024/04/10 07:57:40;;;;;;;;;;;;;;;;;;5309289;26;19938;-58
2024/04/10 08:00:08;;;;;;;;;;;;;;;;;;5305416;26;19938;-58
2024/04/10 08:02:34;;;;;;;;;;;;;;;;;;5293194;26;19939;-57
2024/04/10 08:05:00;;;;;;;;;;;;;;;;;;5301692;26;19972;-58
2024/04/10 08:07:26;;;;;;;;;;;;;;;;;;5303390;26;19930;-56
2024/04/10 08:09:51;;;;;;;;;;;;;;;;;;5297526;26;19938;-57
2024/04/10 08:12:17;;;;;;;;;;;;;;;;;;5299090;26;19931;-56
2024/04/10 08:14:43;;;;;;;;;;;;;;;;;;5302058;26;19942;-57
2024/04/10 08:17:10;;;;;;;;;;;;;;;;;;5309643;26;19938;-55
2024/04/10 08:19:36;;;;;;;;;;;;;;;;;;5299380;26;19931;-56
2024/04/10 08:22:02;;;;;;;;;;;;;;;;;;5290752;26;19964;-57
2024/04/10 08:24:27;;;;;;;;;;;;;;;;;;5304988;26;19937;-57
2024/04/10 08:26:53;;;;;;;;;;;;;;;;;;5298554;26;19938;-57
2024/04/10 08:29:19;;;;;;;;;;;;;;;;;;5305835;26;19977;-57
2024/04/10 08:31:45;;;;;;;;;;;;;;;;;;5303248;26;19931;-59
2024/04/10 08:34:11;;;;;;;;;;;;;;;;;;5306958;26;19931;-59
2024/04/10 08:36:37;;;;;;;;;;;;;;;;;;5284430;26;19931;-58
2024/04/10 08:39:04;;;;;;;;;;;;;;;;;;5301154;26;20005;-58
2024/04/10 08:41:30;;;;;;;;;;;;;;;;;;5306341;26;20005;-58
2024/04/10 08:43:56;;;;;;;;;;;;;;;;;;5309363;26;19942;-55
2024/04/10 08:46:21;;;;;;;;;;;;;;;;;;5289327;26;19938;-57
2024/04/10 08:48:51;;;;;;;;;;;;;;;;;;5306240;26;20343;-58
2024/04/10 08:51:17;;;;;;;;;;;;;;;;;;5293747;26;20364;-58
2024/04/10 08:53:43;;;;;;;;;;;;;;;;;;5296698;26;19931;-58
2024/04/10 08:56:09;;;;;;;;;;;;;;;;;;5306131;26;20320;-58
2024/04/10 08:58:34;;;;;;;;;;;;;;;;;;5308709;26;20044;-55
2024/04/10 09:01:00;;;;;;;;;;;;;;;;;;5296252;26;20275;-58
2024/04/10 09:03:26;;;;;;;;;;;;;;;;;;5302215;26;19931;-58
2024/04/10 09:05:52;;;;;;;;;;;;;;;;;;5295831;26;19931;-56
2024/04/10 09:08:18;;;;;;;;;;;;;;;;;;5304948;26;19930;-58
2024/04/10 09:10:44;;;;;;;;;;;;;;;;;;5292921;26;20266;-57
2024/04/10 09:13:10;;;;;;;;;;;;;;;;;;5308465;26;19931;-58
2024/04/10 09:15:36;;;;;;;;;;;;;;;;;;5300839;26;19937;-59
2024/04/10 09:18:02;;;;;;;;;;;;;;;;;;5298037;26;19931;-58
2024/04/10 09:20:28;;;;;;;;;;;;;;;;;;5298925;26;20046;-59
2024/04/10 09:22:54;;;;;;;;;;;;;;;;;;5308649;26;19931;-59
2024/04/10 09:25:20;;;;;;;;;;;;;;;;;;5300169;26;19930;-56
2024/04/10 09:27:46;;;;;;;;;;;;;;;;;;5289080;26;19931;-58
2024/04/10 09:30:12;;;;;;;;;;;;;;;;;;5306625;26;19939;-58
2024/04/10 09:32:37;;;;;;;;;;;;;;;;;;5303343;26;20018;-58
2024/04/10 09:35:05;;;;;;;;;;;;;;;;;;5298064;26;20000;-57
2024/04/10 09:37:31;;;;;;;;;;;;;;;;;;5302775;26;19931;-57
2024/04/10 09:39:57;;;;;;;;;;;;;;;;;;5303264;26;20328;-58
2024/04/10 09:42:23;;;;;;;;;;;;;;;;;;5297193;26;19938;-59
2024/04/10 09:44:49;;;;;;;;;;;;;;;;;;5307259;26;19937;-55
2024/04/10 09:47:14;;;;;;;;;;;;;;;;;;5307105;26;20341;-57
2024/04/10 09:49:40;;;;;;;;;;;;;;;;;;5302390;26;19930;-57
2024/04/10 09:52:06;;;;;;;;;;;;;;;;;;5290874;26;19939;-57
2024/04/10 09:54:32;;;;;;;;;;;;;;;;;;5305556;26;19990;-58
2024/04/10 09:56:58;;;;;;;;;;;;;;;;;;5298266;26;19931;-56
2024/04/10 09:59:24;;;;;;;;;;;;;;;;;;5304716;26;19942;-56
2024/04/10 10:01:54;;;;;;;;;;;;;;;;;;5305595;26;19931;-57
2024/04/10 10:04:20;;;;;;;;;;;;;;;;;;5278276;26;19935;-55
2024/04/10 10:06:46;;;;;;;;;;;;;;;;;;5303137;26;19931;-58
2024/04/10 10:09:12;;;;;;;;;;;;;;;;;;5303837;26;19930;-58
2024/04/10 10:11:38;;;;;;;;;;;;;;;;;;5303874;26;20310;-57
2024/04/10 10:14:03;;;;;;;;;;;;;;;;;;5308558;26;19930;-58
2024/04/10 10:16:31;;;;;;;;;;;;;;;;;;5297891;26;19931;-59
2024/04/10 10:18:59;;;;;;;;;;;;;;;;;;5304170;26;19938;-56
2024/04/10 10:21:24;;;;;;;;;;;;;;;;;;5303904;26;20384;-58
2024/04/10 10:23:50;;;;;;;;;;;;;;;;;;5297287;26;19938;-56
2024/04/10 10:26:16;;;;;;;;;;;;;;;;;;5297892;26;20450;-58
2024/04/10 10:28:42;;;;;;;;;;;;;;;;;;5304143;26;19931;-58
2024/04/10 10:31:08;;;;;;;;;;;;;;;;;;5301553;26;19943;-57
2024/04/10 10:33:34;;;;;;;;;;;;;;;;;;5301020;26;20277;-56
2024/04/10 10:36:00;;;;;;;;;;;;;;;;;;5297951;26;19931;-54
2024/04/10 10:38:26;;;;;;;;;;;;;;;;;;5306742;26;19930;-58
2024/04/10 10:40:52;;;;;;;;;;;;;;;;;;5307104;26;19930;-55
2024/04/10 10:43:18;;;;;;;;;;;;;;;;;;5295806;26;19943;-59
2024/04/10 10:45:45;;;;;;;;;;;;;;;;;;5295126;26;19931;-59
2024/04/10 10:48:11;;;;;;;;;;;;;;;;;;5298154;26;19938;-59
2024/04/10 10:50:37;;;;;;;;;;;;;;;;;;5307054;26;19931;-58
2024/04/10 10:53:02;;;;;;;;;;;;;;;;;;5298882;26;19943;-59
2024/04/10 10:55:28;;;;;;;;;;;;;;;;;;5302092;26;19930;-59
2024/04/10 10:57:54;;;;;;;;;;;;;;;;;;5298013;26;20459;-58
2024/04/10 11:00:20;;;;;;;;;;;;;;;;;;5273143;26;19939;-59
2024/04/10 11:02:46;;;;;;;;;;;;;;;;;;5306707;26;20253;-58
2024/04/10 11:05:12;;;;;;;;;;;;;;;;;;5304932;26;19930;-59
2024/04/10 11:07:38;;;;;;;;;;;;;;;;;;5296021;26;19943;-58
2024/04/10 11:10:04;;;;;;;;;;;;;;;;;;5302118;26;19937;-59
2024/04/10 11:12:29;;;;;;;;;;;;;;;;;;5307542;26;20241;-59
2024/04/10 11:14:56;;;;;;;;;;;;;;;;;;5309687;26;20279;-57
2024/04/10 11:17:26;;;;;;;;;;;;;;;;;;5303481;26;19934;-58
2024/04/10 11:19:52;;;;;;;;;;;;;;;;;;5304965;26;19938;-58
2024/04/10 11:22:19;;;;;;;;;;;;;;;;;;5293161;26;20362;-57
2024/04/10 11:24:45;;;;;;;;;;;;;;;;;;5308358;26;19937;-58
2024/04/10 11:27:12;;;;;;;;;;;;;;;;;;5310476;26;19962;-59
2024/04/10 11:29:38;;;;;;;;;;;;;;;;;;5299434;26;19946;-59
2024/04/10 11:32:05;;;;;;;;;;;;;;;;;;5306694;26;19931;-58
2024/04/10 11:34:30;;;;;;;;;;;;;;;;;;5306562;26;19930;-58
2024/04/10 11:36:56;;;;;;;;;;;;;;;;;;5306384;26;19936;-58
2024/04/10 11:39:22;;;;;;;;;;;;;;;;;;5307356;26;19937;-59
2024/04/10 11:41:48;;;;;;;;;;;;;;;;;;5306169;26;19961;-58
2024/04/10 11:44:14;;;;;;;;;;;;;;;;;;5276604;26;20005;-59
2024/04/10 11:46:40;;;;;;;;;;;;;;;;;;5302416;26;19945;-60
2024/04/10 11:49:05;;;;;;;;;;;;;;;;;;5308305;26;19934;-58
2024/04/10 11:51:31;;;;;;;;;;;;;;;;;;5307731;26;19931;-59
2024/04/10 11:53:57;;;;;;;;;;;;;;;;;;5306105;26;19942;-58
2024/04/10 11:56:24;;;;;;;;;;;;;;;;;;5306859;26;19945;-59
2024/04/10 11:58:51;;;;;;;;;;;;;;;;;;5299047;26;19935;-59
2024/04/10 12:01:17;;;;;;;;;;;;;;;;;;5297731;26;20260;-59
2024/04/10 12:03:42;;;;;;;;;;;;;;;;;;5307292;26;19937;-59
2024/04/10 12:06:08;;;;;;;;;;;;;;;;;;5301120;26;20359;-57
2024/04/10 12:08:36;;;;;;;;;;;;;;;;;;5294868;26;19931;-58
2024/04/10 12:11:03;;;;;;;;;;;;;;;;;;5304771;26;19930;-59
2024/04/10 12:13:30;;;;;;;;;;;;;;;;;;5310122;26;19946;-58
2024/04/10 12:15:56;;;;;;;;;;;;;;;;;;5302773;26;19931;-58
2024/04/10 12:18:21;;;;;;;;;;;;;;;;;;5299862;26;19945;-56
2024/04/10 12:20:48;;;;;;;;;;;;;;;;;;5294962;26;20366;-57
2024/04/10 12:23:13;;;;;;;;;;;;;;;;;;5308400;26;19931;-59
2024/04/10 12:25:39;;;;;;;;;;;;;;;;;;5298705;26;20280;-59
2024/04/10 12:28:05;;;;;;;;;;;;;;;;;;5301105;26;20002;-58
2024/04/10 12:30:31;;;;;;;;;;;;;;;;;;5304272;26;19931;-58
2024/04/10 12:32:57;;;;;;;;;;;;;;;;;;5304879;26;19941;-58
2024/04/10 12:38:07;;;;;;;;;;;;;;;;;;5309791;26;20004;-59
2024/04/10 12:40:36;;;;;;;;;;;;;;;;;;5298232;26;20355;-59
2024/04/10 12:43:03;;;;;;;;;;;;;;;;;;5298768;26;21084;-58
2024/04/10 12:45:29;;;;;;;;;;;;;;;;;;5305619;26;20292;-59
2024/04/10 12:47:55;;;;;;;;;;;;;;;;;;5299629;26;19930;-58
2024/04/10 12:50:21;;;;;;;;;;;;;;;;;;5303393;26;19938;-58
2024/04/10 12:52:46;;;;;;;;;;;;;;;;;;5308328;26;19962;-59
2024/04/10 12:55:12;;;;;;;;;;;;;;;;;;5306746;26;19959;-61
2024/04/10 12:57:38;;;;;;;;;;;;;;;;;;5303339;26;19931;-58
2024/04/10 13:00:04;;;;;;;;;;;;;;;;;;5306336;26;20287;-58
2024/04/10 13:02:30;;;;;;;;;;;;;;;;;;5304001;26;19945;-60
2024/04/10 13:04:57;;;;;;;;;;;;;;;;;;5298538;26;19931;-58
2024/04/10 13:07:23;;;;;;;;;;;;;;;;;;5302359;26;19930;-59
2024/04/10 13:09:49;;;;;;;;;;;;;;;;;;5307728;26;20013;-59
2024/04/10 13:12:15;;;;;;;;;;;;;;;;;;5304981;26;19931;-58
2024/04/10 13:14:40;;;;;;;;;;;;;;;;;;5305309;26;19945;-58
2024/04/10 13:17:06;;;;;;;;;;;;;;;;;;5311186;26;20422;-58
2024/04/10 13:19:34;;;;;;;;;;;;;;;;;;5291389;26;19942;-59
2024/04/10 13:22:00;;;;;;;;;;;;;;;;;;5302133;26;19945;-55
2024/04/10 13:24:26;;;;;;;;;;;;;;;;;;5294352;26;19931;-58
2024/04/10 13:26:53;;;;;;;;;;;;;;;;;;5296176;26;19945;-59
2024/04/10 13:29:19;;;;;;;;;;;;;;;;;;5302593;26;19937;-58
2024/04/10 13:31:44;;;;;;;;;;;;;;;;;;5294815;26;19931;-59
2024/04/10 13:34:10;;;;;;;;;;;;;;;;;;5301656;26;19935;-58
2024/04/10 13:36:36;;;;;;;;;;;;;;;;;;5298789;26;20344;-58
2024/04/10 13:39:03;;;;;;;;;;;;;;;;;;5299117;26;19930;-55
2024/04/10 13:41:29;;;;;;;;;;;;;;;;;;5292859;26;20017;-60
2024/04/10 13:43:55;;;;;;;;;;;;;;;;;;5301754;26;20724;-60
2024/04/10 13:46:21;;;;;;;;;;;;;;;;;;5302506;26;20256;-59
2024/04/10 13:50:22;;;;;;;;;;;;;;;;;;5401915;26;19926;-60
2024/04/10 13:52:48;;;;;;;;;;;;;;;;;;5358658;26;19937;-58
2024/04/10 13:55:14;;;;;;;;;;;;;;;;;;5356151;26;20016;-58
2024/04/10 13:57:39;;;;;;;;;;;;;;;;;;5351924;26;19949;-58
2024/04/10 14:00:06;;;;;;;;;;;;;;;;;;5354737;26;19996;-58
2024/04/10 14:02:32;;;;;;;;;;;;;;;;;;5360800;26;19937;-57
2024/04/10 14:04:58;;;;;;;;;;;;;;;;;;5359039;26;19930;-57
2024/04/10 14:07:23;;;;;;;;;;;;;;;;;;5366333;26;19945;-57
2024/04/10 14:09:50;;;;;;;;;;;;;;;;;;5365113;26;19937;-58
2024/04/10 14:12:16;;;;;;;;;;;;;;;;;;5362941;26;20326;-55
2024/04/10 14:14:42;;;;;;;;;;;;;;;;;;5362303;26;20015;-58
2024/04/10 14:17:08;;;;;;;;;;;;;;;;;;5361154;26;20260;-57
2024/04/10 14:19:34;;;;;;;;;;;;;;;;;;5362550;26;19953;-58
2024/04/10 14:21:59;;;;;;;;;;;;;;;;;;5361773;26;19937;-58
2024/04/10 14:24:25;;;;;;;;;;;;;;;;;;5365197;26;19941;-58
2024/04/10 14:26:51;;;;;;;;;;;;;;;;;;5367034;26;19960;-58
2024/04/10 14:29:17;;;;;;;;;;;;;;;;;;5368321;26;20000;-60
2024/04/10 14:31:43;;;;;;;;;;;;;;;;;;5368829;26;19935;-57
2024/04/10 14:34:09;;;;;;;;;;;;;;;;;;5355837;26;20029;-58
2024/04/10 14:36:37;;;;;;;;;;;;;;;;;;5370817;26;19942;-57
2024/04/10 14:39:03;;;;;;;;;;;;;;;;;;5364131;26;20409;-58
2024/04/10 14:41:29;;;;;;;;;;;;;;;;;;5363883;26;19929;-59
2024/04/10 14:43:55;;;;;;;;;;;;;;;;;;5351797;26;20020;-59
2024/04/10 14:46:21;;;;;;;;;;;;;;;;;;5361847;26;20231;-56
2024/04/10 14:48:47;;;;;;;;;;;;;;;;;;5365240;26;19989;-58
2024/04/10 14:51:13;;;;;;;;;;;;;;;;;;5369003;26;19942;-58
2024/04/10 14:53:40;;;;;;;;;;;;;;;;;;5358440;26;19938;-59
2024/04/10 14:56:07;;;;;;;;;;;;;;;;;;5362741;26;19937;-56
2024/04/10 14:58:33;;;;;;;;;;;;;;;;;;5361043;26;20256;-56
2024/04/10 15:00:59;;;;;;;;;;;;;;;;;;5346459;26;19970;-56
2024/04/10 15:03:24;;;;;;;;;;;;;;;;;;5348913;26;19929;-54
2024/04/10 15:05:50;;;;;;;;;;;;;;;;;;5343066;26;19930;-56
2024/04/10 15:08:16;;;;;;;;;;;;;;;;;;5351740;26;19937;-56
2024/04/10 15:10:42;;;;;;;;;;;;;;;;;;5355356;26;19940;-55
2024/04/10 15:13:08;;;;;;;;;;;;;;;;;;5346532;26;19976;-59
2024/04/10 15:15:34;;;;;;;;;;;;;;;;;;5345643;26;20371;-55
2024/04/10 15:18:00;;;;;;;;;;;;;;;;;;5351183;26;19930;-57
2024/04/10 15:20:26;;;;;;;;;;;;;;;;;;5346981;26;19929;-60
2024/04/10 15:22:52;;;;;;;;;;;;;;;;;;5342789;26;19930;-58
2024/04/10 15:25:18;;;;;;;;;;;;;;;;;;5342775;26;19937;-59
2024/04/10 15:27:44;;;;;;;;;;;;;;;;;;5354081;26;19937;-57
2024/04/10 15:30:09;;;;;;;;;;;;;;;;;;5338799;26;20542;-58
2024/04/10 15:32:35;;;;;;;;;;;;;;;;;;5341147;26;19937;-58
2024/04/10 15:35:04;;;;;;;;;;;;;;;;;;5346327;26;19930;-59
2024/04/10 15:37:30;;;;;;;;;;;;;;;;;;5340953;26;20869;-58
2024/04/10 15:39:56;;;;;;;;;;;;;;;;;;5356202;26;19930;-58
2024/04/10 15:42:22;;;;;;;;;;;;;;;;;;5347017;26;20312;-59
2024/04/10 15:44:50;;;;;;;;;;;;;;;;;;5337382;26;20005;-57
2024/04/10 15:47:16;;;;;;;;;;;;;;;;;;5341524;26;19930;-57
2024/04/10 15:49:42;;;;;;;;;;;;;;;;;;5347473;26;19966;-58
2024/04/10 15:52:08;;;;;;;;;;;;;;;;;;5345714;26;19930;-58
2024/04/10 15:54:34;;;;;;;;;;;;;;;;;;5355872;26;20446;-59
2024/04/10 15:57:00;;;;;;;;;;;;;;;;;;5338934;26;19930;-57
2024/04/10 15:59:26;;;;;;;;;;;;;;;;;;5346697;26;20378;-58
2024/04/10 16:01:51;;;;;;;;;;;;;;;;;;5348319;26;19983;-59
2024/04/10 16:04:18;;;;;;;;;;;;;;;;;;5364181;26;20433;-58
2024/04/10 16:06:44;;;;;;;;;;;;;;;;;;5347973;26;20004;-59
2024/04/10 16:09:10;;;;;;;;;;;;;;;;;;5352666;26;19941;-58
2024/04/10 16:11:39;;;;;;;;;;;;;;;;;;5349635;26;19931;-59
2024/04/10 16:14:05;;;;;;;;;;;;;;;;;;5334854;26;19988;-60
2024/04/10 16:16:31;;;;;;;;;;;;;;;;;;5349763;26;19938;-58
2024/04/10 16:18:57;;;;;;;;;;;;;;;;;;5356807;26;19934;-58
2024/04/10 16:21:23;;;;;;;;;;;;;;;;;;5346337;26;20253;-57
2024/04/10 16:23:49;;;;;;;;;;;;;;;;;;5339779;26;19938;-57
2024/04/10 16:26:17;;;;;;;;;;;;;;;;;;5352063;26;19930;-59
2024/04/10 16:28:43;;;;;;;;;;;;;;;;;;5349450;26;19930;-57
2024/04/10 16:31:09;;;;;;;;;;;;;;;;;;5351672;26;20261;-57
2024/04/10 16:33:35;;;;;;;;;;;;;;;;;;5359417;26;19929;-58
2024/04/10 16:36:01;;;;;;;;;;;;;;;;;;5346449;26;19930;-55
2024/04/10 16:38:27;;;;;;;;;;;;;;;;;;5351769;26;19936;-57
2024/04/10 16:40:52;;;;;;;;;;;;;;;;;;5351640;26;20564;-54